createdAt,value
2022-10-11T00:00:06.559Z,3.59
2022-10-11T00:00:56.725Z,3.23
2022-10-11T00:01:43.195Z,3.48
2022-10-11T00:02:29.706Z,3.51
2022-10-11T00:03:16.295Z,3.81
2022-10-11T00:04:03.190Z,3.81
2022-10-11T00:04:50.641Z,3.26
2022-10-11T00:05:37.632Z,3.10
2022-10-11T00:06:23.963Z,3.90
2022-10-11T00:07:10.268Z,3.93
2022-10-11T00:07:57.250Z,3.72
2022-10-11T00:08:43.559Z,3.98
2022-10-11T00:09:30.388Z,4.01
2022-10-11T00:10:16.809Z,3.98
2022-10-11T00:11:05.352Z,3.65
2022-10-11T00:11:54.461Z,3.97
2022-10-11T00:12:41.170Z,3.56
2022-10-11T00:13:28.056Z,3.67
2022-10-11T00:14:14.498Z,3.74
2022-10-11T00:15:00.846Z,4.10
2022-10-11T00:15:47.412Z,3.91
2022-10-11T00:16:34.179Z,3.87
2022-10-11T00:17:20.545Z,3.95
2022-10-11T00:18:07.449Z,4.13
2022-10-11T00:18:53.757Z,4.03
2022-10-11T00:19:40.068Z,3.95
2022-10-11T00:20:26.528Z,3.48
2022-10-11T00:21:14.264Z,3.75
2022-10-11T00:22:00.619Z,3.81
2022-10-11T00:22:47.428Z,3.73
2022-10-11T00:23:34.580Z,3.65
2022-10-11T00:24:20.999Z,4.09
2022-10-11T00:25:08.883Z,4.08
2022-10-11T00:25:59.200Z,3.97
2022-10-11T00:26:46.995Z,3.86
2022-10-11T00:27:34.945Z,3.54
2022-10-11T00:28:21.319Z,3.76
2022-10-11T00:29:07.734Z,4.13
2022-10-11T00:29:54.390Z,4.45
2022-10-11T00:30:42.160Z,4.12
2022-10-11T00:31:33.275Z,4.62
2022-10-11T00:32:21.805Z,5.51
2022-10-11T00:33:08.122Z,5.69
2022-10-11T00:33:54.749Z,6.24
2022-10-11T00:34:41.065Z,5.64
2022-10-11T00:35:27.525Z,5.54
2022-10-11T00:36:16.714Z,5.90
2022-10-11T00:37:03.101Z,5.29
2022-10-11T00:37:49.424Z,4.27
2022-10-11T00:38:35.812Z,4.62
2022-10-11T00:39:22.636Z,4.50
2022-10-11T00:40:13.312Z,4.46
2022-10-11T00:41:00.506Z,4.62
2022-10-11T00:41:47.794Z,5.32
2022-10-11T00:42:34.124Z,4.52
2022-10-11T00:43:23.283Z,4.72
2022-10-11T00:44:11.889Z,4.40
2022-10-11T00:45:17.165Z,4.22
2022-10-11T00:46:07.113Z,4.34
2022-10-11T00:47:20.197Z,4.11
2022-10-11T00:48:14.483Z,3.63
2022-10-11T00:49:04.782Z,3.63
2022-10-11T00:49:56.084Z,3.74
2022-10-11T00:50:42.643Z,3.92
2022-10-11T00:51:34.699Z,3.75
2022-10-11T00:52:31.433Z,3.24
2022-10-11T00:53:17.850Z,3.32
2022-10-11T00:54:06.312Z,3.52
2022-10-11T00:54:52.640Z,3.62
2022-10-11T00:55:44.155Z,3.31
2022-10-11T00:56:33.445Z,3.16
2022-10-11T00:57:23.607Z,3.74
2022-10-11T00:58:12.232Z,3.67
2022-10-11T00:59:01.062Z,3.74
2022-10-11T00:59:53.875Z,3.54
2022-10-11T01:00:40.190Z,3.20
2022-10-11T01:01:26.796Z,3.01
2022-10-11T01:02:14.422Z,3.33
2022-10-11T01:03:02.009Z,3.60
2022-10-11T01:03:48.338Z,3.57
2022-10-11T01:04:34.952Z,3.26
2022-10-11T01:05:30.106Z,2.93
2022-10-11T01:06:17.221Z,3.44
2022-10-11T01:07:03.759Z,3.43
2022-10-11T01:07:50.655Z,3.31
2022-10-11T01:08:38.497Z,3.55
2022-10-11T01:09:26.136Z,4.40
2022-10-11T01:10:12.514Z,7.09
2022-10-11T01:10:59.004Z,7.61
2022-10-11T01:11:47.442Z,8.84
2022-10-11T01:12:34.135Z,8.78
2022-10-11T01:13:20.446Z,7.33
2022-10-11T01:14:32.915Z,6.46
2022-10-11T01:15:29.130Z,6.67
2022-10-11T01:16:23.468Z,6.22
2022-10-11T01:17:22.203Z,5.36
2022-10-11T01:18:15.940Z,5.11
2022-10-11T01:19:02.227Z,4.58
2022-10-11T01:20:06.680Z,4.27
2022-10-11T01:21:13.269Z,4.52
2022-10-11T01:22:17.598Z,4.81
2022-10-11T01:23:10.181Z,6.05
2022-10-11T01:23:59.238Z,8.37
2022-10-11T01:24:59.232Z,9.15
2022-10-11T01:26:00.672Z,10.39
2022-10-11T01:27:17.695Z,9.60
2022-10-11T01:28:04.026Z,7.98
2022-10-11T01:29:09.578Z,6.39
2022-10-11T01:29:59.947Z,6.00
2022-10-11T01:30:46.989Z,6.45
2022-10-11T01:31:58.496Z,7.32
2022-10-11T01:33:06.305Z,6.98
2022-10-11T01:34:01.223Z,5.67
2022-10-11T01:34:56.610Z,5.47
2022-10-11T01:35:58.606Z,5.53
2022-10-11T01:37:03.844Z,5.13
2022-10-11T01:37:56.757Z,5.28
2022-10-11T01:38:47.198Z,4.71
2022-10-11T01:39:45.376Z,4.36
2022-10-11T01:40:40.496Z,4.04
2022-10-11T01:41:36.977Z,3.97
2022-10-11T01:42:26.564Z,3.90
2022-10-11T01:43:15.707Z,3.59
2022-10-11T01:44:03.571Z,3.55
2022-10-11T01:44:51.724Z,3.79
2022-10-11T01:45:38.960Z,3.54
2022-10-11T01:46:27.157Z,3.27
2022-10-11T01:47:18.883Z,3.84
2022-10-11T01:48:07.879Z,3.69
2022-10-11T01:48:56.173Z,3.38
2022-10-11T01:49:42.674Z,3.46
2022-10-11T01:50:37.937Z,3.34
2022-10-11T01:51:27.326Z,3.61
2022-10-11T01:52:14.079Z,3.48
2022-10-11T01:53:08.611Z,3.35
2022-10-11T01:54:15.732Z,3.22
2022-10-11T01:55:18.778Z,2.93
2022-10-11T01:56:05.510Z,3.37
2022-10-11T01:57:24.072Z,3.10
2022-10-11T01:58:30.151Z,3.00
2022-10-11T01:59:43.847Z,3.10
2022-10-11T02:00:50.559Z,3.12
2022-10-11T02:01:42.775Z,3.35
2022-10-11T02:02:41.440Z,3.34
2022-10-11T02:03:33.104Z,3.14
2022-10-11T02:04:19.597Z,3.26
2022-10-11T02:05:12.403Z,3.35
2022-10-11T02:06:19.141Z,3.40
2022-10-11T02:07:16.783Z,3.00
2022-10-11T02:08:03.161Z,3.10
2022-10-11T02:08:54.878Z,3.02
2022-10-11T02:09:53.670Z,2.70
2022-10-11T02:10:51.538Z,3.22
2022-10-11T02:11:39.106Z,3.37
2022-10-11T02:12:33.638Z,3.32
2022-10-11T02:13:23.453Z,2.93
2022-10-11T02:14:13.250Z,2.90
2022-10-11T02:15:03.986Z,2.68
2022-10-11T02:15:53.698Z,3.00
2022-10-11T02:16:47.246Z,2.99
2022-10-11T02:17:37.675Z,2.93
2022-10-11T02:18:28.323Z,2.61
2022-10-11T02:19:18.628Z,3.07
2022-10-11T02:20:09.808Z,2.94
2022-10-11T02:21:00.631Z,2.97
2022-10-11T02:21:52.411Z,3.02
2022-10-11T02:22:42.289Z,2.86
2022-10-11T02:23:36.210Z,2.69
2022-10-11T02:24:27.144Z,2.59
2022-10-11T02:25:17.928Z,3.12
2022-10-11T02:26:06.917Z,2.79
2022-10-11T02:26:56.995Z,2.93
2022-10-11T02:27:47.108Z,2.83
2022-10-11T02:28:36.255Z,2.85
2022-10-11T02:29:24.709Z,2.89
2022-10-11T02:30:11.296Z,3.00
2022-10-11T02:31:00.456Z,3.02
2022-10-11T02:31:48.691Z,2.82
2022-10-11T02:32:38.957Z,3.08
2022-10-11T02:33:30.104Z,3.39
2022-10-11T02:34:20.481Z,3.41
2022-10-11T02:35:08.237Z,3.26
2022-10-11T02:35:59.165Z,3.35
2022-10-11T02:37:01.244Z,3.63
2022-10-11T02:38:01.698Z,3.37
2022-10-11T02:38:53.367Z,3.51
2022-10-11T02:39:44.450Z,3.72
2022-10-11T02:40:30.709Z,3.04
2022-10-11T02:41:35.610Z,3.22
2022-10-11T02:42:29.741Z,3.35
2022-10-11T02:43:39.863Z,3.22
2022-10-11T02:44:32.310Z,2.86
2022-10-11T02:45:26.937Z,2.75
2022-10-11T02:46:15.223Z,2.73
2022-10-11T02:47:04.351Z,2.97
2022-10-11T02:47:51.078Z,2.89
2022-10-11T02:48:37.522Z,3.09
2022-10-11T02:49:23.932Z,2.95
2022-10-11T02:50:11.742Z,2.82
2022-10-11T02:50:58.372Z,2.73
2022-10-11T02:51:44.733Z,2.60
2022-10-11T02:52:31.079Z,2.67
2022-10-11T02:53:17.452Z,2.62
2022-10-11T02:54:03.816Z,2.91
2022-10-11T02:54:50.207Z,2.53
2022-10-11T02:55:36.656Z,2.55
2022-10-11T02:56:22.980Z,2.39
2022-10-11T02:57:09.334Z,2.48
2022-10-11T02:57:55.654Z,2.53
2022-10-11T02:58:42.067Z,2.57
2022-10-11T02:59:28.693Z,2.65
2022-10-11T03:00:15.346Z,3.00
2022-10-11T03:01:07.950Z,2.85
2022-10-11T03:01:54.385Z,2.52
2022-10-11T03:02:40.731Z,2.88
2022-10-11T03:03:27.041Z,3.15
2022-10-11T03:04:13.393Z,2.89
2022-10-11T03:05:00.104Z,2.97
2022-10-11T03:05:46.543Z,3.11
2022-10-11T03:06:33.100Z,2.62
2022-10-11T03:07:19.438Z,2.60
2022-10-11T03:08:09.906Z,2.42
2022-10-11T03:08:56.238Z,2.78
2022-10-11T03:09:42.644Z,2.75
2022-10-11T03:10:29.145Z,2.64
2022-10-11T03:11:15.478Z,2.68
2022-10-11T03:12:01.789Z,2.60
2022-10-11T03:12:48.794Z,2.63
2022-10-11T03:13:35.141Z,2.78
2022-10-11T03:14:21.486Z,2.66
2022-10-11T03:15:08.046Z,2.71
2022-10-11T03:16:02.930Z,2.69
2022-10-11T03:16:51.649Z,2.60
2022-10-11T03:17:38.042Z,2.59
2022-10-11T03:18:24.387Z,2.98
2022-10-11T03:19:14.683Z,2.56
2022-10-11T03:20:06.024Z,2.55
2022-10-11T03:20:52.366Z,2.75
2022-10-11T03:21:39.339Z,3.04
2022-10-11T03:22:25.698Z,3.00
2022-10-11T03:23:13.470Z,3.00
2022-10-11T03:23:59.899Z,2.76
2022-10-11T03:24:46.372Z,2.59
2022-10-11T03:25:32.843Z,2.29
2022-10-11T03:26:19.270Z,2.30
2022-10-11T03:27:05.663Z,2.55
2022-10-11T03:27:52.242Z,2.69
2022-10-11T03:28:38.667Z,2.62
2022-10-11T03:29:25.132Z,2.53
2022-10-11T03:30:14.201Z,2.90
2022-10-11T03:31:04.014Z,3.30
2022-10-11T03:31:51.136Z,2.86
2022-10-11T03:32:37.536Z,2.87
2022-10-11T03:33:23.912Z,2.77
2022-10-11T03:34:10.510Z,2.91
2022-10-11T03:34:57.014Z,2.92
2022-10-11T03:35:47.433Z,2.92
2022-10-11T03:36:33.834Z,2.70
2022-10-11T03:37:20.152Z,2.65
2022-10-11T03:38:10.075Z,3.01
2022-10-11T03:38:59.429Z,2.97
2022-10-11T03:39:45.891Z,2.95
2022-10-11T03:40:32.244Z,3.55
2022-10-11T03:41:18.809Z,2.91
2022-10-11T03:42:05.148Z,2.91
2022-10-11T03:42:51.535Z,2.80
2022-10-11T03:43:37.858Z,2.98
2022-10-11T03:44:24.299Z,3.14
2022-10-11T03:45:10.677Z,3.09
2022-10-11T03:45:57.276Z,3.40
2022-10-11T03:46:43.597Z,3.17
2022-10-11T03:47:30.314Z,2.72
2022-10-11T03:48:16.637Z,3.02
2022-10-11T03:49:03.126Z,2.94
2022-10-11T03:49:49.422Z,2.74
2022-10-11T03:50:36.313Z,2.83
2022-10-11T03:51:22.709Z,2.80
2022-10-11T03:52:09.081Z,2.98
2022-10-11T03:52:55.478Z,2.67
2022-10-11T03:53:41.827Z,2.95
2022-10-11T03:54:28.186Z,2.94
2022-10-11T03:55:14.505Z,3.16
2022-10-11T03:56:04.594Z,3.10
2022-10-11T03:56:53.921Z,2.85
2022-10-11T03:57:40.251Z,2.96
2022-10-11T03:58:26.573Z,2.82
2022-10-11T03:59:12.928Z,2.81
2022-10-11T03:59:59.242Z,2.78
2022-10-11T04:00:45.833Z,2.78
2022-10-11T04:01:37.413Z,2.59
2022-10-11T04:02:23.898Z,2.65
2022-10-11T04:03:10.500Z,2.79
2022-10-11T04:03:57.296Z,2.92
2022-10-11T04:04:43.706Z,3.04
2022-10-11T04:05:30.375Z,3.17
2022-10-11T04:06:16.751Z,2.94
2022-10-11T04:07:03.289Z,3.39
2022-10-11T04:07:49.589Z,3.47
2022-10-11T04:08:35.982Z,3.63
2022-10-11T04:09:22.309Z,3.76
2022-10-11T04:10:08.800Z,3.75
2022-10-11T04:10:55.270Z,4.07
2022-10-11T04:11:41.634Z,4.50
2022-10-11T04:12:27.964Z,4.43
2022-10-11T04:13:14.444Z,4.68
2022-10-11T04:14:00.958Z,5.04
2022-10-11T04:14:47.470Z,4.67
2022-10-11T04:15:33.883Z,4.95
2022-10-11T04:16:20.670Z,5.26
2022-10-11T04:17:07.020Z,6.03
2022-10-11T04:17:53.392Z,6.13
2022-10-11T04:18:40.735Z,6.09
2022-10-11T04:19:27.301Z,6.35
2022-10-11T04:20:14.019Z,6.66
2022-10-11T04:21:00.501Z,6.70
2022-10-11T04:21:46.895Z,7.33
2022-10-11T04:22:33.566Z,7.30
2022-10-11T04:23:19.877Z,6.93
2022-10-11T04:24:06.293Z,6.74
2022-10-11T04:24:52.721Z,7.54
2022-10-11T04:25:39.441Z,7.94
2022-10-11T04:26:25.731Z,7.95
2022-10-11T04:27:12.086Z,7.13
2022-10-11T04:27:58.443Z,7.40
2022-10-11T04:28:44.791Z,6.99
2022-10-11T04:29:32.789Z,6.94
2022-10-11T04:30:19.547Z,7.69
2022-10-11T04:31:07.716Z,8.14
2022-10-11T04:31:54.098Z,7.61
2022-10-11T04:32:40.516Z,7.96
2022-10-11T04:33:26.938Z,8.25
2022-10-11T04:34:13.295Z,8.76
2022-10-11T04:34:59.593Z,8.13
2022-10-11T04:35:45.943Z,7.36
2022-10-11T04:36:33.856Z,7.64
2022-10-11T04:37:20.255Z,7.81
2022-10-11T04:38:06.631Z,8.00
2022-10-11T04:38:56.001Z,7.25
2022-10-11T04:39:42.369Z,6.88
2022-10-11T04:40:28.729Z,6.63
2022-10-11T04:41:15.680Z,7.67
2022-10-11T04:42:02.056Z,7.12
2022-10-11T04:42:50.388Z,7.80
2022-10-11T04:43:37.035Z,7.47
2022-10-11T04:44:23.434Z,7.58
2022-10-11T04:45:09.887Z,7.80
2022-10-11T04:45:56.207Z,7.52
2022-10-11T04:46:42.626Z,8.14
2022-10-11T04:47:28.962Z,9.53
2022-10-11T04:48:15.335Z,9.06
2022-10-11T04:49:01.719Z,8.95
2022-10-11T04:49:48.053Z,8.37
2022-10-11T04:50:34.770Z,8.14
2022-10-11T04:51:21.968Z,7.71
2022-10-11T04:52:08.333Z,7.92
2022-10-11T04:52:54.746Z,8.32
2022-10-11T04:53:41.074Z,8.36
2022-10-11T04:54:27.455Z,8.77
2022-10-11T04:55:14.145Z,8.43
2022-10-11T04:56:02.605Z,9.00
2022-10-11T04:56:49.360Z,7.58
2022-10-11T04:57:35.742Z,8.05
2022-10-11T04:58:22.173Z,8.83
2022-10-11T04:59:08.618Z,8.72
2022-10-11T04:59:55.514Z,8.20
2022-10-11T05:00:41.895Z,8.53
2022-10-11T05:01:30.242Z,8.67
2022-10-11T05:02:16.642Z,8.51
2022-10-11T05:03:03.363Z,8.20
2022-10-11T05:03:49.879Z,8.33
2022-10-11T05:04:36.206Z,8.92
2022-10-11T05:05:22.539Z,8.45
2022-10-11T05:06:09.620Z,8.62
2022-10-11T05:06:56.341Z,9.30
2022-10-11T05:07:42.936Z,8.87
2022-10-11T05:08:29.373Z,8.83
2022-10-11T05:09:15.685Z,9.46
2022-10-11T05:10:02.237Z,9.90
2022-10-11T05:11:10.918Z,9.51
2022-10-11T05:11:57.601Z,9.21
2022-10-11T05:12:44.064Z,9.28
2022-10-11T05:13:31.335Z,9.39
2022-10-11T05:14:17.719Z,9.62
2022-10-11T05:15:04.297Z,9.32
2022-10-11T05:15:50.829Z,8.60
2022-10-11T05:16:37.189Z,9.20
2022-10-11T05:17:23.529Z,9.41
2022-10-11T05:18:09.829Z,9.23
2022-10-11T05:18:57.312Z,8.85
2022-10-11T05:19:43.674Z,9.30
2022-10-11T05:20:29.992Z,9.36
2022-10-11T05:21:18.495Z,9.10
2022-10-11T05:22:04.991Z,9.35
2022-10-11T05:22:51.372Z,8.77
2022-10-11T05:23:37.917Z,9.19
2022-10-11T05:24:24.235Z,8.76
2022-10-11T05:25:10.895Z,9.21
2022-10-11T05:25:58.040Z,8.98
2022-10-11T05:26:44.338Z,9.09
2022-10-11T05:27:33.388Z,8.43
2022-10-11T05:28:19.829Z,9.06
2022-10-11T05:29:06.226Z,9.28
2022-10-11T05:29:52.532Z,8.92
2022-10-11T05:30:38.894Z,8.82
2022-10-11T05:31:25.336Z,8.95
2022-10-11T05:32:11.666Z,8.81
2022-10-11T05:32:58.001Z,8.64
2022-10-11T05:33:44.982Z,9.00
2022-10-11T05:34:31.374Z,8.69
2022-10-11T05:35:18.480Z,8.56
2022-10-11T05:36:06.048Z,8.79
2022-10-11T05:36:52.790Z,8.88
2022-10-11T05:37:39.225Z,8.69
2022-10-11T05:38:26.829Z,8.77
2022-10-11T05:39:13.243Z,8.97
2022-10-11T05:39:59.836Z,9.01
2022-10-11T05:40:46.393Z,8.76
2022-10-11T05:41:32.726Z,8.50
2022-10-11T05:42:19.058Z,8.80
2022-10-11T05:43:06.040Z,9.14
2022-10-11T05:43:52.387Z,8.90
2022-10-11T05:44:38.849Z,8.85
2022-10-11T05:45:25.301Z,9.06
2022-10-11T05:46:12.198Z,8.99
2022-10-11T05:46:58.531Z,9.05
2022-10-11T05:47:45.461Z,9.48
2022-10-11T05:48:31.822Z,9.20
2022-10-11T05:49:18.146Z,9.47
2022-10-11T05:50:04.576Z,9.37
2022-10-11T05:50:50.938Z,8.99
2022-10-11T05:51:37.393Z,9.29
2022-10-11T05:52:23.782Z,9.45
2022-10-11T05:53:10.157Z,8.70
2022-10-11T05:53:56.498Z,9.11
2022-10-11T05:54:42.869Z,8.81
2022-10-11T05:55:29.194Z,8.80
2022-10-11T05:56:24.070Z,9.15
2022-10-11T05:57:10.407Z,8.96
2022-10-11T05:57:57.279Z,9.21
2022-10-11T05:58:43.621Z,8.74
2022-10-11T05:59:30.313Z,8.94
2022-10-11T06:00:16.798Z,9.25
2022-10-11T06:01:03.485Z,9.55
2022-10-11T06:01:50.060Z,9.43
2022-10-11T06:02:36.446Z,9.51
2022-10-11T06:03:23.007Z,9.39
2022-10-11T06:04:11.617Z,9.42
2022-10-11T06:04:57.940Z,8.51
2022-10-11T06:05:44.276Z,8.12
2022-10-11T06:06:30.673Z,8.08
2022-10-11T06:07:17.056Z,8.13
2022-10-11T06:08:04.073Z,7.60
2022-10-11T06:08:50.549Z,8.13
2022-10-11T06:09:36.912Z,8.27
2022-10-11T06:10:23.256Z,7.85
2022-10-11T06:11:14.731Z,7.73
2022-10-11T06:12:01.991Z,7.69
2022-10-11T06:12:48.389Z,8.14
2022-10-11T06:13:35.728Z,7.97
2022-10-11T06:14:22.530Z,7.86
2022-10-11T06:15:10.692Z,8.03
2022-10-11T06:15:57.045Z,8.51
2022-10-11T06:16:43.353Z,8.88
2022-10-11T06:17:29.711Z,8.27
2022-10-11T06:18:16.224Z,8.11
2022-10-11T06:19:02.533Z,9.01
2022-10-11T06:19:49.283Z,8.97
2022-10-11T06:20:36.516Z,8.65
2022-10-11T06:21:23.598Z,8.73
2022-10-11T06:22:11.115Z,9.01
2022-10-11T06:22:58.961Z,9.43
2022-10-11T06:23:48.018Z,9.80
2022-10-11T06:24:34.352Z,8.83
2022-10-11T06:25:20.725Z,8.56
2022-10-11T06:26:08.893Z,8.79
2022-10-11T06:26:55.762Z,9.17
2022-10-11T06:27:42.298Z,9.55
2022-10-11T06:28:29.136Z,9.81
2022-10-11T06:29:15.591Z,10.08
2022-10-11T06:30:01.965Z,10.09
2022-10-11T06:30:48.296Z,10.26
2022-10-11T06:31:34.644Z,10.85
2022-10-11T06:32:21.017Z,11.22
2022-10-11T06:33:07.471Z,11.27
2022-10-11T06:33:53.803Z,11.35
2022-10-11T06:34:40.413Z,11.52
2022-10-11T06:35:26.874Z,12.40
2022-10-11T06:36:14.588Z,12.71
2022-10-11T06:37:00.976Z,12.04
2022-10-11T06:37:47.358Z,11.77
2022-10-11T06:38:34.376Z,12.41
2022-10-11T06:39:20.722Z,11.98
2022-10-11T06:40:07.278Z,11.82
2022-10-11T06:40:54.143Z,11.87
2022-10-11T06:41:40.612Z,11.61
2022-10-11T06:42:27.015Z,12.92
2022-10-11T06:43:13.492Z,12.63
2022-10-11T06:43:59.905Z,12.93
2022-10-11T06:44:46.240Z,12.58
2022-10-11T06:45:33.969Z,12.04
2022-10-11T06:46:21.911Z,11.86
2022-10-11T06:47:09.263Z,12.30
2022-10-11T06:47:55.578Z,11.63
2022-10-11T06:48:45.946Z,11.33
2022-10-11T06:49:32.462Z,11.71
2022-10-11T06:50:30.087Z,12.05
2022-10-11T06:51:25.142Z,12.65
2022-10-11T06:52:11.512Z,12.98
2022-10-11T06:52:57.980Z,13.32
2022-10-11T06:53:48.285Z,14.12
2022-10-11T06:54:34.622Z,14.10
2022-10-11T06:55:21.068Z,13.46
2022-10-11T06:56:12.022Z,14.26
2022-10-11T06:56:58.362Z,15.42
2022-10-11T06:57:44.679Z,14.63
2022-10-11T06:58:31.592Z,13.64
2022-10-11T06:59:18.219Z,13.21
2022-10-11T07:00:08.995Z,12.83
2022-10-11T07:01:06.626Z,13.30
2022-10-11T07:01:52.983Z,12.79
2022-10-11T07:02:39.408Z,11.94
2022-10-11T07:03:25.742Z,12.44
2022-10-11T07:04:12.124Z,12.71
2022-10-11T07:04:58.464Z,12.81
2022-10-11T07:05:44.782Z,13.34
2022-10-11T07:06:31.788Z,13.02
2022-10-11T07:07:18.285Z,12.79
2022-10-11T07:08:04.792Z,12.90
2022-10-11T07:08:51.849Z,13.01
2022-10-11T07:09:38.220Z,13.32
2022-10-11T07:10:24.562Z,13.37
2022-10-11T07:11:18.931Z,13.29
2022-10-11T07:12:05.456Z,12.31
2022-10-11T07:12:52.027Z,13.24
2022-10-11T07:13:38.986Z,13.28
2022-10-11T07:14:25.332Z,12.92
2022-10-11T07:15:11.978Z,13.24
2022-10-11T07:16:01.095Z,13.39
2022-10-11T07:16:48.073Z,13.67
2022-10-11T07:17:34.527Z,13.81
2022-10-11T07:18:20.925Z,13.30
2022-10-11T07:19:07.346Z,14.19
2022-10-11T07:19:53.704Z,13.66
2022-10-11T07:20:40.082Z,13.04
2022-10-11T07:21:27.581Z,13.20
2022-10-11T07:22:13.907Z,13.95
2022-10-11T07:23:00.216Z,14.34
2022-10-11T07:23:46.530Z,13.83
2022-10-11T07:24:32.849Z,13.90
2022-10-11T07:25:19.201Z,13.91
2022-10-11T07:26:07.437Z,14.45
2022-10-11T07:26:54.064Z,15.72
2022-10-11T07:27:40.421Z,15.96
2022-10-11T07:28:27.169Z,15.53
2022-10-11T07:29:13.725Z,15.25
2022-10-11T07:30:00.034Z,14.53
2022-10-11T07:30:47.291Z,14.87
2022-10-11T07:31:33.657Z,14.48
2022-10-11T07:32:20.029Z,14.59
2022-10-11T07:33:12.895Z,14.40
2022-10-11T07:34:59.755Z,14.60
2022-10-11T07:35:48.518Z,14.97
2022-10-11T07:36:36.880Z,15.74
2022-10-11T07:38:04.424Z,15.54
2022-10-11T07:38:52.670Z,16.85
2022-10-11T07:39:39.417Z,16.70
2022-10-11T07:40:25.823Z,16.33
2022-10-11T07:41:29.367Z,15.89
2022-10-11T07:42:15.719Z,16.39
2022-10-11T07:43:02.162Z,17.58
2022-10-11T07:43:49.697Z,17.47
2022-10-11T07:44:36.508Z,17.29
2022-10-11T07:45:22.857Z,16.22
2022-10-11T07:46:10.876Z,17.58
2022-10-11T07:46:57.409Z,17.04
2022-10-11T07:47:46.365Z,17.62
2022-10-11T07:48:33.706Z,17.04
2022-10-11T07:49:20.036Z,17.77
2022-10-11T07:50:07.167Z,18.45
2022-10-11T07:51:00.978Z,18.47
2022-10-11T07:51:47.317Z,16.74
2022-10-11T07:52:35.267Z,17.44
2022-10-11T07:53:21.660Z,17.74
2022-10-11T07:54:08.018Z,18.08
2022-10-11T07:54:54.398Z,17.77
2022-10-11T07:55:40.867Z,17.36
2022-10-11T07:56:28.841Z,17.77
2022-10-11T07:57:15.510Z,17.29
2022-10-11T07:58:01.842Z,16.85
2022-10-11T07:58:52.716Z,18.38
2022-10-11T07:59:39.319Z,19.05
2022-10-11T08:00:25.820Z,18.70
2022-10-11T08:01:12.298Z,18.47
2022-10-11T08:01:58.744Z,16.91
2022-10-11T08:02:45.152Z,18.15
2022-10-11T08:03:31.525Z,18.85
2022-10-11T08:04:17.925Z,18.85
2022-10-11T08:05:04.466Z,18.38
2022-10-11T08:05:52.173Z,17.91
2022-10-11T08:06:38.614Z,18.25
2022-10-11T08:07:25.062Z,18.16
2022-10-11T08:08:11.558Z,17.90
2022-10-11T08:09:00.030Z,18.23
2022-10-11T08:09:46.402Z,18.12
2022-10-11T08:10:36.697Z,17.75
2022-10-11T08:11:24.567Z,17.42
2022-10-11T08:12:10.937Z,17.72
2022-10-11T08:13:01.990Z,18.24
2022-10-11T08:13:50.522Z,18.57
2022-10-11T08:14:36.857Z,18.65
2022-10-11T08:15:23.479Z,17.80
2022-10-11T08:16:11.036Z,19.28
2022-10-11T08:16:57.383Z,19.18
2022-10-11T08:17:43.749Z,19.37
2022-10-11T08:18:30.117Z,19.04
2022-10-11T08:19:18.477Z,19.06
2022-10-11T08:20:05.063Z,18.46
2022-10-11T08:20:51.641Z,20.08
2022-10-11T08:21:38.002Z,20.11
2022-10-11T08:22:24.362Z,19.53
2022-10-11T08:23:10.830Z,18.57
2022-10-11T08:23:57.197Z,19.63
2022-10-11T08:24:43.762Z,19.59
2022-10-11T08:25:30.393Z,20.44
2022-10-11T08:26:16.976Z,20.30
2022-10-11T08:27:03.689Z,20.93
2022-10-11T08:27:50.045Z,21.11
2022-10-11T08:28:37.260Z,20.29
2022-10-11T08:29:23.945Z,20.11
2022-10-11T08:30:10.741Z,21.43
2022-10-11T08:30:57.969Z,21.41
2022-10-11T08:31:44.950Z,20.11
2022-10-11T08:32:31.310Z,19.10
2022-10-11T08:33:18.664Z,19.24
2022-10-11T08:34:05.347Z,19.12
2022-10-11T08:34:51.708Z,18.91
2022-10-11T08:35:38.089Z,18.86
2022-10-11T08:36:24.477Z,18.12
2022-10-11T08:37:10.851Z,17.96
2022-10-11T08:37:57.285Z,17.75
2022-10-11T08:38:43.742Z,19.18
2022-10-11T08:39:30.230Z,18.88
2022-10-11T08:40:18.409Z,18.56
2022-10-11T08:41:22.396Z,18.75
2022-10-11T08:42:27.583Z,18.75
2022-10-11T08:43:32.443Z,19.22
2022-10-11T08:44:21.592Z,20.20
2022-10-11T08:45:16.714Z,19.99
2022-10-11T08:46:06.298Z,19.20
2022-10-11T08:47:00.676Z,17.79
2022-10-11T08:47:47.493Z,17.45
2022-10-11T08:48:40.468Z,19.03
2022-10-11T08:49:30.247Z,18.99
2022-10-11T08:50:23.699Z,19.70
2022-10-11T08:51:28.237Z,19.24
2022-10-11T08:52:22.026Z,18.27
2022-10-11T08:53:17.809Z,17.34
2022-10-11T08:54:14.509Z,18.76
2022-10-11T08:55:01.154Z,19.65
2022-10-11T08:55:51.182Z,18.39
2022-10-11T08:56:39.809Z,19.70
2022-10-11T08:57:29.058Z,20.54
2022-10-11T08:58:17.966Z,20.15
2022-10-11T08:59:04.299Z,19.35
2022-10-11T08:59:58.839Z,20.31
2022-10-11T09:00:48.018Z,20.11
2022-10-11T09:01:36.014Z,19.08
2022-10-11T09:02:25.729Z,19.67
2022-10-11T09:03:25.772Z,20.09
2022-10-11T09:04:17.123Z,20.04
2022-10-11T09:05:04.441Z,19.36
2022-10-11T09:05:58.801Z,18.70
2022-10-11T09:06:55.579Z,18.87
2022-10-11T09:07:41.919Z,18.16
2022-10-11T09:08:40.518Z,18.20
2022-10-11T09:09:51.359Z,18.41
2022-10-11T09:10:50.021Z,18.67
2022-10-11T09:11:39.496Z,18.52
2022-10-11T09:12:44.660Z,19.31
2022-10-11T09:13:54.159Z,19.74
2022-10-11T09:14:53.440Z,18.48
2022-10-11T09:15:49.004Z,19.03
2022-10-11T09:16:35.390Z,18.83
2022-10-11T09:17:31.484Z,19.05
2022-10-11T09:18:44.563Z,18.30
2022-10-11T09:19:30.944Z,17.60
2022-10-11T09:20:35.963Z,18.01
2022-10-11T09:21:40.747Z,17.94
2022-10-11T09:22:47.361Z,17.41
2022-10-11T09:23:55.954Z,17.52
2022-10-11T09:24:45.592Z,17.82
2022-10-11T09:25:36.376Z,18.16
2022-10-11T09:26:23.024Z,17.75
2022-10-11T09:27:25.923Z,18.13
2022-10-11T09:28:40.464Z,17.63
2022-10-11T09:29:45.511Z,17.82
2022-10-11T09:30:33.041Z,17.48
2022-10-11T09:31:19.826Z,17.44
2022-10-11T09:32:11.718Z,17.38
2022-10-11T09:33:09.439Z,17.07
2022-10-11T09:33:58.896Z,17.29
2022-10-11T09:34:45.824Z,17.16
2022-10-11T09:35:37.603Z,17.63
2022-10-11T09:36:42.805Z,19.06
2022-10-11T09:37:53.112Z,18.47
2022-10-11T09:39:06.916Z,16.93
2022-10-11T09:40:13.311Z,17.99
2022-10-11T09:41:08.885Z,17.95
2022-10-11T09:42:03.501Z,18.35
2022-10-11T09:42:49.888Z,18.75
2022-10-11T09:43:36.895Z,18.79
2022-10-11T09:44:25.378Z,17.85
2022-10-11T09:45:18.425Z,18.39
2022-10-11T09:46:17.368Z,17.60
2022-10-11T09:47:05.286Z,17.88
2022-10-11T09:47:55.446Z,18.20
2022-10-11T09:48:41.891Z,18.77
2022-10-11T09:49:31.802Z,19.11
2022-10-11T09:50:23.321Z,19.01
2022-10-11T09:51:20.623Z,18.42
2022-10-11T09:52:15.095Z,17.25
2022-10-11T09:53:04.941Z,17.89
2022-10-11T09:53:56.301Z,18.62
2022-10-11T09:54:42.705Z,18.37
2022-10-11T09:55:50.329Z,19.07
2022-10-11T09:56:42.461Z,19.19
2022-10-11T09:57:28.881Z,19.46
2022-10-11T09:58:30.149Z,20.15
2022-10-11T09:59:28.788Z,18.33
2022-10-11T10:00:26.480Z,17.88
2022-10-11T10:01:22.269Z,18.64
2022-10-11T10:02:14.481Z,18.65
2022-10-11T10:03:02.880Z,17.15
2022-10-11T10:04:03.670Z,19.18
2022-10-11T10:04:53.785Z,18.05
2022-10-11T10:05:40.444Z,19.98
2022-10-11T10:06:28.295Z,18.35
2022-10-11T10:07:15.684Z,18.67
2022-10-11T10:08:11.018Z,18.23
2022-10-11T10:09:17.335Z,19.28
2022-10-11T10:10:22.555Z,19.23
2022-10-11T10:11:10.883Z,19.35
2022-10-11T10:11:57.832Z,18.14
2022-10-11T10:12:44.303Z,16.79
2022-10-11T10:13:41.252Z,16.79
2022-10-11T10:14:30.053Z,17.52
2022-10-11T10:15:19.789Z,17.56
2022-10-11T10:16:11.532Z,18.92
2022-10-11T10:17:00.926Z,18.48
2022-10-11T10:17:51.853Z,18.80
2022-10-11T10:18:42.766Z,19.45
2022-10-11T10:19:31.757Z,18.76
2022-10-11T10:20:23.058Z,19.38
2022-10-11T10:21:13.697Z,19.62
2022-10-11T10:22:00.101Z,19.55
2022-10-11T10:22:47.017Z,18.42
2022-10-11T10:23:35.378Z,18.99
2022-10-11T10:24:27.692Z,18.79
2022-10-11T10:25:37.470Z,19.01
2022-10-11T10:26:26.899Z,19.98
2022-10-11T10:27:21.061Z,18.90
2022-10-11T10:28:19.559Z,17.80
2022-10-11T10:29:08.810Z,19.08
2022-10-11T10:30:10.484Z,18.01
2022-10-11T10:31:01.151Z,17.83
2022-10-11T10:32:09.242Z,18.30
2022-10-11T10:33:04.583Z,18.24
2022-10-11T10:33:54.244Z,18.14
2022-10-11T10:34:57.416Z,17.55
2022-10-11T10:35:55.317Z,16.94
2022-10-11T10:36:45.955Z,17.14
2022-10-11T10:37:35.457Z,17.12
2022-10-11T10:38:27.539Z,17.86
2022-10-11T10:39:28.153Z,16.88
2022-10-11T10:40:20.088Z,16.61
2022-10-11T10:41:10.023Z,17.60
2022-10-11T10:41:56.829Z,16.33
2022-10-11T10:42:43.239Z,16.62
2022-10-11T10:43:37.504Z,16.89
2022-10-11T10:44:23.872Z,16.30
2022-10-11T10:45:21.116Z,16.73
2022-10-11T10:46:14.589Z,16.31
2022-10-11T10:47:00.990Z,15.32
2022-10-11T10:48:06.119Z,16.29
2022-10-11T10:50:22.646Z,15.83
2022-10-11T10:51:18.091Z,15.51
2022-10-11T10:52:20.316Z,16.01
2022-10-11T10:53:12.613Z,16.32
2022-10-11T10:54:19.278Z,16.64